Weather history for 0503

Weather History For Prescott AZ

This page updates 5 minutes after midnight. GMT -7

Station: KPRC0 Rows: 26

Return to today's weather
Year Date Temp (°F) Tmin (°F) Tmax (°F) RH% Prcp Snow Wind Gust Pres Sun Cloud
2000 2000-05-03 68.2 48.9 82.9 18 11.6 29.82 0
2001 2001-05-03 47.3 35.1 57.0 25 17.3 29.83 1
2002 2002-05-03 55.8 37.4 69.8 27 8.5 29.93 1
2003 2003-05-03 56.7 50.0 64.4 32 21.8 29.76 2
2004 2004-05-03 67.6 46.4 84.2 22 10.1 29.98 0
2005 2005-05-03 58.3 44.1 70.0 45 0.0 11.4 29.88 2
2006 2006-05-03 63.3 48.9 75.0 19 0.0 16.4 29.79 2
2007 2007-05-03 60.4 51.1 70.0 30 0.0 15.2 29.70 0
2008 2008-05-03 55.9 34.0 73.0 19 0.0 10.0 29.89 0
2009 2009-05-03 65.3 52.0 77.0 35 0.0 12.3 29.85 0
2010 2010-05-03 51.8 32.0 71.1 27 0.0 9.0 30.12 0
2011 2011-05-03 57.2 34.0 75.9 16 0.0 8.8 30.09 0
2012 2012-05-03 61.2 45.0 75.0 37 0.0 12.9 29.87 0
2013 2013-05-03 58.6 35.1 78.1 14 0.0 9.6 29.97 0
2014 2014-05-03 67.6 46.9 82.9 15 0.0 11.2 29.90 0
2015 2015-05-03 65.5 57.0 75.0 32 15.3 29.79
2016 2016-05-03 58.3 39.0 73.9 48 0.0 6.8 29.98 0
2017 2017-05-03 66.9 48.0 82.0 29 0.0 9.5 29.91 0
2018 2018-05-03 51.1 33.1 68.0 59 0.0 8.0 30.09 1
2019 2019-05-03 60.3 41.0 75.9 27 0.0 10.8 29.86 0
2020 2020-05-03 64.2 46.9 77.0 28 0.0 17.9 29.90 0
2021 2021-05-03 60.8 48.9 72.0 27 0.0 13.5 29.66 1
2022 2022-05-03 62.6 53.1 73.0 28 0.0 19.8 29.74 0
2023 2023-05-03 60.4 51.1 72.0 34 0.0 20.9 29.72 1
2024 2024-05-03 63.0 51.1 73.9 31 0.0 13.1 29.75 1
2025 2025-05-03 60.8 44.1 75.0 36 0.0 12.0 29.79 3
Average Low 44.4
Average High 74.0

Daily High / Low by Year (05/03)

Barometric Pressure by Year (05/03)

Weather data provided by Meteostat